Alamo, Nevada Weather observations

Data are for observation ending at time listed.
 Day   Time    Ave.   Ave.  Ave.  Vector   Max.   Stn.    Total    Solar   Ave.  
  of    of     Air    Rel.  Wind   Wind    Wind   Baro.  Precip.   Rad.    Soil  
Year   Day     Temp.  Hum.  Speed  Dir.    Gust   Pres.                    Temp. 
2026   (PST)    F      %     mph   deg.    mph     mb.     in.     W/m2     F   
------------------------------------------------------------------------------
 125   11:40   66.2    24    1.5   175      6.1   891.3    0.00     225    60.2
 125   11:50   66.9    22    2.5   205      7.7   891.1    0.00     207    60.2
 125   12:00   67.5    22    2.6   197      9.4   890.9    0.00     189    60.2
 125   12:10   68.1    21    1.4   166      6.4   890.7    0.00     354    60.4
 125   12:20   67.8    20    2.9   194      8.0   890.7    0.00     301    60.6
 125   12:30   68.6    18    1.9   216      6.3   890.6    0.00     589    60.9
 125   12:40   68.7    19    2.6   200      7.5   890.5    0.00     946    61.4
 125   12:50   69.0    19    1.5   168      4.2   890.4    0.00     938    62.0
 125   13:00   68.5    18    1.7   187      8.3   890.5    0.00     930    62.6
 125   13:10   70.6    18    2.7   211      6.6   890.6    0.00     919    63.3
 125   13:20   71.6    16    1.7   305      4.5   890.3    0.00     911    63.9
 125   13:30   70.9    17    1.4   181      5.3   890.2    0.00     893    64.5
 125   13:40   70.7    17    1.8    83      6.0   890.0    0.00     879    65.1
 125   13:50   70.6    17    1.9   195      7.0   889.9    0.00     860    65.7
 125   14:00   71.5    17    2.0   195      5.1   889.9    0.00     840    66.3
 125   14:10   71.5    16    1.8   240      4.7   889.8    0.00     796    66.8
 125   14:20   71.7    18    2.5   216      8.3   889.7    0.00     748    67.2
 125   14:30   70.8    17    2.8   220      7.3   889.6    0.00     770    67.7
 125   14:40   71.7    17    2.1   225      5.6   889.5    0.00     752    68.1
 125   14:50   72.6    17    2.6   208      6.9   889.4    0.00     717    68.4
 125   15:00   71.4    17    1.1   176      4.1   889.3    0.00     669    68.5
 125   15:10   71.9    17    1.9   224      6.1   889.1    0.00     668    68.6
 125   15:20   72.8    16    1.4     9      4.0   889.0    0.00     627    68.6
 125   15:30   71.5    17    2.0   219      5.9   888.9    0.00     569    68.6
 125   15:40   71.3    16    1.1    50      4.0   888.9    0.00     573    68.5
 125   15:50   71.7    17    2.3   208      7.0   888.8    0.00     550    68.5
 125   16:00   72.0    18    1.5   163      3.9   888.8    0.00     508    68.4
 125   16:10   71.9    17    0.6   179      2.2   888.8    0.00     488    68.3
 125   16:20   71.9    19    1.3   201      5.0   888.8    0.00     414    68.1
 125   16:30   71.8    20    1.6   194      3.9   888.8    0.00     376    68.0
 125   16:40   71.4    19    2.0   198      7.9   888.8    0.00     379    67.9
 125   16:50   71.6    19    1.4   192      3.9   888.8    0.00     337    67.8
 125   17:00   71.8    19    0.7   182      3.3   888.8    0.00     259    67.7
 125   17:10   70.9    20    0.7   169      2.6   888.9    0.00     163    67.6
 125   17:20   69.9    20    0.7   171      2.6   888.9    0.00     138    67.6
 125   17:30   69.4    21    0.5   171      1.8   889.0    0.00     141    67.5
 125   17:40   69.4    21    0.7   169      2.2   889.0    0.00     152    67.4
 125   17:50   69.5    21    0.4   184      2.1   889.0    0.00      93    67.2
 125   18:00   69.0    21    0.1   179      1.1   889.1    0.00      34    67.1
 125   18:10   68.0    23    0.1   189      1.5   889.2    0.00      36    67.0
 125   18:20   66.8    24    0.1   178      1.1   889.3    0.00      26    67.0
 125   18:30   66.1    24    0.4   193      1.8   889.4    0.00       9    66.9
 125   18:40   65.3    24    0.3   168      2.1   889.5    0.00       4    66.8
 125   18:50   65.7    23    0.5   176      3.9   889.6    0.00       1    66.6
 125   19:00   65.6    24    0.3   167      1.9   889.7    0.00       0    66.5
 125   19:10   65.7    23    0.5   155      2.4   889.9    0.00       0    66.7
 125   19:20   65.6    24    0.5   155      2.6   890.0    0.00       0    66.3
 125   19:30   65.0    25    0.8   203      3.4   890.3    0.00       0    66.2
 125   19:40   64.2    26    0.6   195      4.2   890.6    0.00       0    66.2
 125   19:50   64.3    27    0.6   204      3.9   890.9    0.00       0    65.9
 125   20:00   64.5    27    1.0   188      3.8   891.1    0.00       0    65.9
 125   20:10   65.1    27    0.9   213      2.7   891.3    0.00       0    65.8
 125   20:20   65.0    28    0.5   212      3.7   891.5    0.00       0    65.7
 125   20:30   63.4    31    0.2   162      0.9   891.5    0.00       0    65.7
 125   20:40   61.8    33    0.1   191      0.9   891.5    0.00       0    65.4
 125   20:50   60.8    34    0.1   163      0.9   891.7    0.00       0    65.5
 125   21:00   60.3    35    0.1   294      1.0   891.8    0.00       0    65.5
 125   21:10   59.5    40    0.1   180      0.9   891.8    0.00       0    65.3
 125   21:20   59.0    39    0.9    12      3.7   891.8    0.00       0    64.8
 125   21:30   59.0    38    0.6    18      2.4   892.0    0.00       0    64.8
 125   21:40   59.3    36    0.3   299      1.3   892.1    0.00       0    65.0
 125   21:50   58.9    37    0.1   227      1.4   892.2    0.00       0    64.6
 125   22:00   59.0    35    0.1   184      0.7   892.3    0.00       0    64.8
 125   22:10   59.5    35    0.1   198      1.1   892.3    0.00       0    64.5
 125   22:20   58.9    36    0.3   203      1.5   892.4    0.00       0    64.3
 125   22:30   58.4    39    0.1   209      1.5   892.5    0.00       0    64.4
 125   22:40   58.0    39    0.0     0      0.0   892.6    0.00       0    64.3
 125   22:50   57.3    40    0.2   208      1.0   892.7    0.00       0    64.4
 125   23:00   56.6    43    0.1   316      1.4   892.8    0.00       0    64.1
 125   23:10   56.0    44    0.9    19      2.6   892.9    0.00       0    64.0
 125   23:20   55.7    46    0.1   336      0.8   892.9    0.00       0    64.0
 125   23:30   54.8    47    0.0   328      0.3   892.9    0.00       0    63.9
 125   23:40   54.3    49    0.2   222      1.1   892.9    0.00       0    64.1
 125   23:50   54.2    49    0.4   357      2.0   892.9    0.00       0    63.5
 126    0:00   53.5    49    0.0     0      0.0   893.0    0.00       0    63.5
 126    0:10   53.1    50    0.6    11      2.0   893.0    0.00       0    63.4
 126    0:20   52.6    52    0.2    12      1.3   893.1    0.00       0    63.5
 126    0:30   51.9    52    0.2   310      0.8   893.3    0.00       0    63.4
 126    0:40   51.6    54    0.0   266      0.6   893.3    0.00       0    63.4
 126    0:50   51.2    54    0.4   332      1.7   893.3    0.00       0    63.1
 126    1:00   51.0    54    0.0   354      0.4   893.3    0.00       0    63.0
 126    1:10   50.6    55    0.1   355      0.7   893.5    0.00       0    63.0
 126    1:20   50.2    54    0.9   323      1.8   893.6    0.00       0    62.9
 126    1:30   50.3    52    0.5   355      1.7   893.7    0.00       0    62.8
 126    1:40   49.4    55    0.6    22      1.5   893.7    0.00       0    62.5
 126    1:50   49.1    57    0.4   334      1.5   893.8    0.00       0    62.4
 126    2:00   48.8    58    0.6   323      1.9   893.8    0.00       0    62.3
 126    2:10   48.3    60    0.2   353      1.2   893.8    0.00       0    62.2
 126    2:20   48.0    60    0.7   333      1.6   893.9    0.00       0    61.9
 126    2:30   47.9    60    0.9     5      1.8   894.0    0.00       0    62.0
 126    2:40   47.5    61    0.4    11      1.2   894.0    0.00       0    62.1
 126    2:50   46.9    63    0.2    13      1.0   894.0    0.00       0    61.7
 126    3:00   46.5    64    0.0    22      0.6   894.1    0.00       0    61.9
 126    3:10   46.7    63    0.2    13      1.2   894.3    0.00       0    61.5
 126    3:20   46.5    64    0.1   254      0.8   894.4    0.00       0    61.8
 126    3:30   46.4    64    0.0   249      0.4   894.4    0.00       0    61.4
 126    3:40   46.2    64    0.0     0      0.0   894.5    0.00       0    61.3
 126    3:50   45.9    66    0.4    16      1.8   894.6    0.00       0    61.2
 126    4:00   45.7    66    0.5   327      1.5   894.7    0.00       0    61.1
 126    4:10   45.5    65    0.3   347      1.2   894.8    0.00       0    61.1
 126    4:20   45.1    65    0.1    18      0.8   894.9    0.00       0    60.9
 126    4:30   45.1    66    0.8    11      1.8   895.0    0.00       0    60.9
 126    4:40   44.8    66    1.2   344      1.9   895.2    0.00       1    60.7
 126    4:50   44.2    68    0.7    22      2.2   895.3    0.00       3    60.6
 126    5:00   44.0    70    0.0    32      0.2   895.4    0.00       5    60.5
 126    5:10   44.3    70    0.1    17      0.7   895.6    0.00       7    60.5
 126    5:20   44.7    70    0.0    16      0.5   895.7    0.00      10    60.4
 126    5:30   45.1    68    0.2    20      1.2   895.8    0.00      16    60.2
 126    5:40   46.0    66    0.3    17      1.2   896.0    0.00      25    60.2
 126    5:50   48.0    62    0.3    17      1.4   896.2    0.00      27    60.0
 126    6:00   49.5    61    0.9    29      2.6   896.3    0.00      27    59.9
 126    6:10   50.6    60    0.4    26      1.7   896.5    0.00      28    59.9
 126    6:20   52.0    58    0.2    39      1.7   896.6    0.00      28    59.9
 126    6:30   53.4    56    0.0   336      0.7   896.7    0.00      28    60.0
 126    6:40   55.0    55    0.1    80      0.8   896.7    0.00      29    60.0
 126    6:50   56.9    52    0.1    65      0.7   896.8    0.00      31    60.1
 126    7:00   57.9    48    0.7    16      2.7   896.9    0.00      32    60.3
 126    7:10   58.7    46    0.8    11      2.2   896.9    0.00      33    60.4
 126    7:20   59.7    46    0.8   304      2.3   896.9    0.00      32    60.4
 126    7:30   61.0    44    0.8   317      1.8   897.0    0.00      38    60.5
 126    7:40   62.1    42    0.7    20      2.6   897.0    0.00      32    60.5
 126    7:50   62.8    42    0.6   229      2.4   896.9    0.00      31    60.6
 126    8:00   62.9    41    1.3   219      3.4   896.9    0.00      31    60.6
 126    8:10   63.5    40    0.8   165      2.1   896.9    0.00      38    60.7
 126    8:20   64.8    39    1.3   249      3.6   896.9    0.00      36    60.7
 126    8:30   66.0    37    1.5   349      4.4   896.8    0.00      38    60.8
 126    8:40   67.4    35    2.1   346      7.1   896.8    0.00      34    60.8
 126    8:50   67.8    33    4.4   334      8.8   896.8    0.00      47    60.9
 126    9:00   68.6    31    4.5   329      8.8   896.8    0.00      54    60.9
 126    9:10   69.4    31    3.3   326      8.2   896.8    0.00     104    60.9
 126    9:20   70.0    30    4.2   343      9.6   896.8    0.00      37    60.9
 126    9:30   70.8    28    4.4   323      9.2   896.7    0.00      40    61.0
 126    9:40   71.4    27    5.7   334     11.8   896.8    0.00      37    61.0
 126    9:50   71.9    26    5.6   342     11.8   896.8    0.00      37    61.0
 126   10:00   72.4    25    5.0   324     11.6   896.8    0.00      44    61.0
 126   10:10   73.3    24    6.0   328     12.1   896.7    0.00      53    61.1
 126   10:20   73.8    23    5.3   323      9.8   896.7    0.00      45    61.1
 126   10:30   73.9    24    5.9   342     13.4   896.7    0.00      53    61.2
 126   10:40   74.4    22    4.4   321     10.0   896.6    0.00      55    61.3
 126   10:50   74.9    21    4.0   330     15.6   896.5    0.00      51    61.3
 126   11:00   75.1    21    5.3   358     10.8   896.5    0.00      72    61.4
 126   11:10   75.8    20    6.3   332     11.2   896.4    0.00      97    61.4
 126   11:20   76.2    21    4.3   312     11.2   896.4    0.00      56    61.5
 126   11:30   76.5    20    5.0   349     12.8   896.3    0.00     142    61.6

Return to Alamo, Nevada graphs page.


Western Regional Climate Center,wrcc@dri.edu